Mare Frisium — PCBM — position and weather

sailwx.info

Track history (hours):
 
Tides and Currents Weather Stations Pressure Air Temp Water Temp Dewpoint Dewpoint Depression Visibility Wind Speed Wind Dir Waves Ship Positions

Mare Frisium (Netherlands)

Ship's website: http://www.tallship-company.com/mare-frisium-2/

Last reported at 2018-Apr-27 08:30 UTC. Time now 2018-Apr-27 08:46 UTC.
Position N 53°33' E 009°59'.

Length 49 m; draft 2.7 m.

Type: Sailing vessel. MMSI: 244596000.

Date/timePositionNaut miles runAvg speedWind from/ knotsBaromVisibWave heightAir tempDewpointWater temp
2018-Apr-27 08:30N 53°33' E 009°59'0 0.0
2018-Apr-27 08:00N 53°33' E 009°59'0 0.0
2018-Apr-27 07:30N 53°33' E 009°59'0 0.0
2018-Apr-27 07:00N 53°33' E 009°59'0 0.0
2018-Apr-27 06:30N 53°33' E 009°59'0 0.0
2018-Apr-27 06:00N 53°33' E 009°59'0 0.0
2018-Apr-27 05:30N 53°33' E 009°59'0 0.0
2018-Apr-27 05:00N 53°33' E 009°59'0 0.0
2018-Apr-27 04:30N 53°33' E 009°59'0 0.0
2018-Apr-27 04:00N 53°33' E 009°59'0 0.0
2018-Apr-27 03:30N 53°33' E 009°59'0 0.0
2018-Apr-27 03:00N 53°33' E 009°59'0 0.0
2018-Apr-27 02:30N 53°33' E 009°59'0 0.0
2018-Apr-27 02:00N 53°33' E 009°59'0 0.0
2018-Apr-27 01:30N 53°33' E 009°59'0 0.0
2018-Apr-27 01:00N 53°33' E 009°59'0 0.0
2018-Apr-27 00:30N 53°33' E 009°59'0 0.0
2018-Apr-27 00:00N 53°33' E 009°59'0 0.0
2018-Apr-26 23:30N 53°33' E 009°59'0 0.0
2018-Apr-26 23:00N 53°33' E 009°59'0 0.0
2018-Apr-26 22:30N 53°33' E 009°59'0 0.0
2018-Apr-26 22:00N 53°33' E 009°59'0 0.0
2018-Apr-26 21:30N 53°33' E 009°59'0 0.0
2018-Apr-26 21:00N 53°33' E 009°59'0 0.0
2018-Apr-26 20:30N 53°33' E 009°59'0 0.0
2018-Apr-26 20:00N 53°33' E 009°59'0 0.0
2018-Apr-26 19:30N 53°33' E 009°59'0 0.0
2018-Apr-26 19:00N 53°33' E 009°59'0 0.0
2018-Apr-26 18:30N 53°33' E 009°59'1 2.9
2018-Apr-26 18:01N 53°32' E 009°56'2 4.2
2018-Apr-26 17:30N 53°32' E 009°53'1 2.9
2018-Apr-26 17:00N 53°33' E 009°51'2 3.5
2018-Apr-26 16:30N 53°33' E 009°48'2 4.5
2018-Apr-26 16:00N 53°34' E 009°44'2 3.5
2018-Apr-26 15:30N 53°34' E 009°41'3 5.0
2018-Apr-26 15:00N 53°34' E 009°45'4 8.3
2018-Apr-26 14:30N 53°33' E 009°52'3 6.4
2018-Apr-26 14:00N 53°33' E 009°57'1 1.7
2018-Apr-26 13:29N 53°33' E 009°59'0 0.0
2018-Apr-26 12:59N 53°33' E 009°59'0 0.0
2018-Apr-26 12:29N 53°33' E 009°59'0 0.1
2018-Apr-26 11:59N 53°33' E 009°59'0 0.0
2018-Apr-26 11:29N 53°33' E 009°59'0 0.0
2018-Apr-26 10:59N 53°33' E 009°59'0 0.0
2018-Apr-26 10:29N 53°33' E 009°59'0 0.0
2018-Apr-26 09:59N 53°33' E 009°59'0 0.0
2018-Apr-26 09:30N 53°33' E 009°59'0 0.0
2018-Apr-26 08:59N 53°33' E 009°59'0 0.0
2018-Apr-26 08:29N 53°33' E 009°59'0 0.0
2018-Apr-26 07:58N 53°33' E 009°59'0 0.0
2018-Apr-26 07:29N 53°33' E 009°59'0 0.0
2018-Apr-26 06:59N 53°33' E 009°59'0 0.0
2018-Apr-26 06:29N 53°33' E 009°59'0 0.0
2018-Apr-26 05:59N 53°33' E 009°59'0 0.0
2018-Apr-26 05:29N 53°33' E 009°59'0 0.0
2018-Apr-26 04:59N 53°33' E 009°59'0 0.0
2018-Apr-26 04:29N 53°33' E 009°59'0 0.0
2018-Apr-26 03:59N 53°33' E 009°59'0 0.0
2018-Apr-26 03:29N 53°33' E 009°59'0 0.0
2018-Apr-26 02:59N 53°33' E 009°59'0 0.0
2018-Apr-26 02:29N 53°33' E 009°59'0 0.0
2018-Apr-26 01:59N 53°33' E 009°59'0 0.0
2018-Apr-26 01:29N 53°33' E 009°59'0 0.1
2018-Apr-26 00:59N 53°33' E 009°59'0 0.0
2018-Apr-26 00:29N 53°33' E 009°59'0 0.0
2018-Apr-25 23:59N 53°33' E 009°59'0 0.0
2018-Apr-25 23:29N 53°33' E 009°59'0 0.0
2018-Apr-25 22:59N 53°33' E 009°59'0 0.0
2018-Apr-25 22:29N 53°33' E 009°59'0 0.0
2018-Apr-25 21:59N 53°33' E 009°59'0 0.0
2018-Apr-25 21:29N 53°33' E 009°59'0 0.0
2018-Apr-25 20:59N 53°33' E 009°59'1 1.9
2018-Apr-25 20:30N 53°33' E 009°57'3 5.4
2018-Apr-25 20:01N 53°32' E 009°53'3 5.7
2018-Apr-25 19:30N 53°33' E 009°48'3 6.2
2018-Apr-25 19:01N 53°34' E 009°43'3 5.0
2018-Apr-25 18:30N 53°34' E 009°39'1 1.7
2018-Apr-25 18:00N 53°34' E 009°40'4 7.4
2018-Apr-25 17:30N 53°34' E 009°47'4 7.9
2018-Apr-25 17:00N 53°33' E 009°53'3 6.9
2018-Apr-25 16:30N 53°32' E 009°59'0 0.2
2018-Apr-25 15:58N 53°33' E 009°59'0 0.0
2018-Apr-25 15:28N 53°33' E 009°59'0 0.0
2018-Apr-25 14:58N 53°33' E 009°59'0 0.0
2018-Apr-25 14:28N 53°33' E 009°59'0 0.1
2018-Apr-25 13:58N 53°33' E 009°59'0 0.0
2018-Apr-25 13:28N 53°33' E 009°59'0 0.0
2018-Apr-25 12:58N 53°33' E 009°59'0 0.0
2018-Apr-25 12:28N 53°33' E 009°59'0 0.0
2018-Apr-25 11:58N 53°33' E 009°59'0 0.0
2018-Apr-25 11:28N 53°33' E 009°59'0 0.0
2018-Apr-25 10:58N 53°33' E 009°59'0 0.0
2018-Apr-25 10:28N 53°33' E 009°59'0 0.0
2018-Apr-25 09:58N 53°33' E 009°59'0 0.0
2018-Apr-25 09:28N 53°33' E 009°59'0 0.0
2018-Apr-25 08:58N 53°33' E 009°59'0 0.0
2018-Apr-25 08:28N 53°33' E 009°59'0 0.0
2018-Apr-25 07:58N 53°33' E 009°59'0 0.0
2018-Apr-25 07:28N 53°33' E 009°59'0 0.0
2018-Apr-25 06:58N 53°33' E 009°59'0 0.0
2018-Apr-25 06:28N 53°33' E 009°59'0 0.0
2018-Apr-25 05:58N 53°33' E 009°59'0 0.0
2018-Apr-25 05:28N 53°33' E 009°59'0 0.0
2018-Apr-25 04:58N 53°33' E 009°59'0 0.0
2018-Apr-25 04:28N 53°33' E 009°59'0 0.0
2018-Apr-25 03:58N 53°33' E 009°59'0 0.0
2018-Apr-25 03:28N 53°33' E 009°59'0 0.0
2018-Apr-25 02:58N 53°33' E 009°59'0 0.0
2018-Apr-25 02:28N 53°33' E 009°59'0 0.0
2018-Apr-25 01:58N 53°33' E 009°59'0 0.0
2018-Apr-25 01:28N 53°33' E 009°59'0 0.0
2018-Apr-25 00:58N 53°33' E 009°59'0 0.0
2018-Apr-25 00:28N 53°33' E 009°59'0 0.0
2018-Apr-24 23:58N 53°33' E 009°59'0 0.0
2018-Apr-24 23:28N 53°33' E 009°59'0 0.0
2018-Apr-24 22:58N 53°33' E 009°59'0 0.0
2018-Apr-24 22:28N 53°33' E 009°59'0 0.0
2018-Apr-24 21:58N 53°33' E 009°59'0 0.0
2018-Apr-24 21:28N 53°33' E 009°59'0 0.0
2018-Apr-24 20:58N 53°33' E 009°59'0 0.0
2018-Apr-24 20:28N 53°33' E 009°59'0 0.0
2018-Apr-24 19:58N 53°33' E 009°59'0 0.0
2018-Apr-24 19:28N 53°33' E 009°59'0 0.0
2018-Apr-24 18:58N 53°33' E 009°59'0 0.0
2018-Apr-24 18:28N 53°33' E 009°59'0 0.0
2018-Apr-24 17:58N 53°33' E 009°59'0 0.0
2018-Apr-24 17:28N 53°33' E 009°59'0 0.0
2018-Apr-24 16:58N 53°33' E 009°59'0 0.0
2018-Apr-24 16:28N 53°33' E 009°59'0 0.0
2018-Apr-24 15:58N 53°33' E 009°59'0 0.0
2018-Apr-24 15:28N 53°33' E 009°59'0 0.0
2018-Apr-24 14:58N 53°33' E 009°59'0 0.0
2018-Apr-24 14:28N 53°33' E 009°59'0 0.0
2018-Apr-24 13:58N 53°33' E 009°59'0 0.0
2018-Apr-24 13:28N 53°33' E 009°59'0 0.0
2018-Apr-24 12:58N 53°33' E 009°59'0 0.0
2018-Apr-24 12:28N 53°33' E 009°59'0 0.0
2018-Apr-24 11:58N 53°33' E 009°59'0 0.0
2018-Apr-24 11:28N 53°33' E 009°59'0 0.0
2018-Apr-24 10:58N 53°33' E 009°59'0 0.0
2018-Apr-24 10:28N 53°33' E 009°59'0 0.0
2018-Apr-24 09:58N 53°33' E 009°59'0 0.0
2018-Apr-24 09:28N 53°33' E 009°59'0 0.0
2018-Apr-24 08:58N 53°33' E 009°59'0 0.0
2018-Apr-24 08:28N 53°33' E 009°59'0 0.0
2018-Apr-24 07:58N 53°33' E 009°59'0 0.0
2018-Apr-24 07:28N 53°33' E 009°59'0 0.0
2018-Apr-24 06:58N 53°33' E 009°59'0 0.0
2018-Apr-24 06:28N 53°33' E 009°59'0 0.0
2018-Apr-24 05:58N 53°33' E 009°59'0 0.0
2018-Apr-24 05:28N 53°33' E 009°59'0 0.0
2018-Apr-24 04:58N 53°33' E 009°59'0 0.0
2018-Apr-24 04:28N 53°33' E 009°59'0 0.0
2018-Apr-24 03:58N 53°33' E 009°59'0 0.0
2018-Apr-24 03:28N 53°33' E 009°59'0 0.0
2018-Apr-24 02:58N 53°33' E 009°59'0 0.0
2018-Apr-24 02:28N 53°33' E 009°59'0 0.0
2018-Apr-24 01:58N 53°33' E 009°59'0 0.0
2018-Apr-24 01:28N 53°33' E 009°59'0 0.0
2018-Apr-24 00:58N 53°33' E 009°59'0 0.0
2018-Apr-24 00:28N 53°33' E 009°59'0 0.0
2018-Apr-23 23:58N 53°33' E 009°59'0 0.0
2018-Apr-23 23:28N 53°33' E 009°59'0 0.0
2018-Apr-23 22:58N 53°33' E 009°59'0 0.0
2018-Apr-23 22:28N 53°33' E 009°59'0 0.0
2018-Apr-23 21:58N 53°33' E 009°59'0 0.0
2018-Apr-23 21:28N 53°33' E 009°59'0 0.0
2018-Apr-23 20:58N 53°33' E 009°59'0 0.0
2018-Apr-23 20:28N 53°33' E 009°59'0 0.0
2018-Apr-23 19:58N 53°33' E 009°59'0 0.0
2018-Apr-23 19:28N 53°33' E 009°59'0 0.0
2018-Apr-23 18:58N 53°33' E 009°59'0 0.0
2018-Apr-23 18:28N 53°33' E 009°59'0 0.0
2018-Apr-23 17:58N 53°33' E 009°59'0 0.0
2018-Apr-23 17:28N 53°33' E 009°59'0 0.0
2018-Apr-23 16:58N 53°33' E 009°59'0 0.0
2018-Apr-23 16:28N 53°33' E 009°59'0 0.0
2018-Apr-23 15:58N 53°33' E 009°59'0 0.0
2018-Apr-23 15:28N 53°33' E 009°59'0 0.0
2018-Apr-23 14:58N 53°33' E 009°59'0 0.0
2018-Apr-23 14:28N 53°33' E 009°59'0 0.0
2018-Apr-23 13:58N 53°33' E 009°59'0 0.0
2018-Apr-23 13:28N 53°33' E 009°59'0 0.0
2018-Apr-23 12:58N 53°33' E 009°59'0 0.0
2018-Apr-23 12:28N 53°33' E 009°59'0 0.0
2018-Apr-23 11:58N 53°33' E 009°59'0 0.0
2018-Apr-23 11:28N 53°33' E 009°59'0 0.0
2018-Apr-23 10:58N 53°33' E 009°59'0 0.0
2018-Apr-23 10:28N 53°33' E 009°59'0 0.0
2018-Apr-23 09:58N 53°33' E 009°59'0 0.0
2018-Apr-23 09:28N 53°33' E 009°59'0 0.0
2018-Apr-23 08:58N 53°33' E 009°59'0 0.0
2018-Apr-23 08:28N 53°33' E 009°59'0 0.0
2018-Apr-23 07:58N 53°33' E 009°59'0 0.0
2018-Apr-23 07:28N 53°33' E 009°59'0 0.0
2018-Apr-23 06:58N 53°33' E 009°59'0 0.0
2018-Apr-23 06:28N 53°33' E 009°59'0 0.0
2018-Apr-23 05:58N 53°33' E 009°59'0 0.0
2018-Apr-23 05:28N 53°33' E 009°59'0 0.0
2018-Apr-23 04:58N 53°33' E 009°59'0 0.0
2018-Apr-23 04:28N 53°33' E 009°59'0 0.0
2018-Apr-23 03:58N 53°33' E 009°59'0 0.0
2018-Apr-23 03:28N 53°33' E 009°59'0 0.0
2018-Apr-23 02:58N 53°33' E 009°59'0 0.0
2018-Apr-23 02:28N 53°33' E 009°59'0 0.0
2018-Apr-23 01:58N 53°33' E 009°59'0 0.0
2018-Apr-23 01:28N 53°33' E 009°59'0 0.0
2018-Apr-23 00:58N 53°33' E 009°59'0 0.0
2018-Apr-23 00:28N 53°33' E 009°59'0 0.0
2018-Apr-22 23:58N 53°33' E 009°59'0 0.0
2018-Apr-22 23:28N 53°33' E 009°59'0 0.0
2018-Apr-22 22:58N 53°33' E 009°59'0 0.0
2018-Apr-22 22:28N 53°33' E 009°59'0 0.0
2018-Apr-22 22:00N 53°33' E 009°59'0 0.0
2018-Apr-22 21:30N 53°33' E 009°59'1 2.8
2018-Apr-22 21:00N 53°33' E 009°56'2 3.3
2018-Apr-22 20:31N 53°32' E 009°54'2 4.2
2018-Apr-22 20:00N 53°33' E 009°50'1 2.8
2018-Apr-22 19:30N 53°33' E 009°48'1 2.6
2018-Apr-22 19:00N 53°33' E 009°50'1 2.1
2018-Apr-22 18:30N 53°33' E 009°52'1 2.0
2018-Apr-22 18:00N 53°33' E 009°53'1 1.8
2018-Apr-22 17:28N 53°33' E 009°55'1 2.7
2018-Apr-22 17:00N 53°33' E 009°57'1 2.0
2018-Apr-22 16:30N 53°32' E 009°59'0 0.2
2018-Apr-22 15:58N 53°33' E 009°59'0 0.0
2018-Apr-22 15:28N 53°33' E 009°59'0 0.0
2018-Apr-22 14:58N 53°33' E 009°59'0 0.0
2018-Apr-22 14:28N 53°33' E 009°59'0 0.0
2018-Apr-22 13:58N 53°33' E 009°59'0 0.0
2018-Apr-22 13:28N 53°33' E 009°59'0 0.0
2018-Apr-22 12:58N 53°33' E 009°59'1 1.9
2018-Apr-22 12:30N 53°33' E 009°57'3 5.2
2018-Apr-22 12:00N 53°32' E 009°53'3 5.0
2018-Apr-22 11:30N 53°33' E 009°49'2 4.7
2018-Apr-22 11:00N 53°34' E 009°45'1 2.1
2018-Apr-22 10:30N 53°34' E 009°47'4 7.7
2018-Apr-22 10:00N 53°33' E 009°53'3 5.9
2018-Apr-22 09:30N 53°33' E 009°58'0 0.8
2018-Apr-22 08:58N 53°33' E 009°59'0 0.0
2018-Apr-22 08:28N 53°33' E 009°59'0 0.0
2018-Apr-22 07:58N 53°33' E 009°59'0 0.0
2018-Apr-22 07:28N 53°33' E 009°59'0 0.0
2018-Apr-22 06:58N 53°33' E 009°59'0 0.0
2018-Apr-22 06:28N 53°33' E 009°59'0 0.1
2018-Apr-22 05:58N 53°33' E 009°59'0 0.0
2018-Apr-22 05:28N 53°33' E 009°59'0 0.0
2018-Apr-22 04:58N 53°33' E 009°59'0 0.0
2018-Apr-22 04:28N 53°33' E 009°59'0 0.0
2018-Apr-22 03:58N 53°33' E 009°59'0 0.0
2018-Apr-22 03:28N 53°33' E 009°59'0 0.0
2018-Apr-22 02:58N 53°33' E 009°59'0 0.0
2018-Apr-22 02:28N 53°33' E 009°59'0 0.0
2018-Apr-22 01:55N 53°33' E 009°59'0 0.0
2018-Apr-22 01:28N 53°33' E 009°59'0 0.0
2018-Apr-22 00:58N 53°33' E 009°59'0 0.0
2018-Apr-22 00:28N 53°33' E 009°59'0 0.0
2018-Apr-21 23:58N 53°33' E 009°59'0 0.0
2018-Apr-21 23:28N 53°33' E 009°59'0 0.0
2018-Apr-21 22:58N 53°33' E 009°59'0 0.0
2018-Apr-21 22:28N 53°33' E 009°59'0 0.0
2018-Apr-21 21:58N 53°33' E 009°59'0 0.0
2018-Apr-21 21:28N 53°33' E 009°59'0 0.0
2018-Apr-21 20:58N 53°33' E 009°59'0 0.0
2018-Apr-21 20:28N 53°33' E 009°59'0 0.0
2018-Apr-21 19:58N 53°33' E 009°59'0 0.0
2018-Apr-21 19:28N 53°33' E 009°59'0 0.0
2018-Apr-21 18:58N 53°33' E 009°59'0 0.0
2018-Apr-21 18:28N 53°33' E 009°59'0 0.0
2018-Apr-21 17:58N 53°33' E 009°59'0 0.0
2018-Apr-21 17:28N 53°33' E 009°59'0 0.0
2018-Apr-21 16:58N 53°33' E 009°59'0 0.0
2018-Apr-21 16:28N 53°33' E 009°59'0 0.0
2018-Apr-21 15:58N 53°33' E 009°59'0 0.0
2018-Apr-21 15:28N 53°33' E 009°59'0 0.0
2018-Apr-21 14:58N 53°33' E 009°59'0 0.0
2018-Apr-21 14:28N 53°33' E 009°59'0 0.0
2018-Apr-21 13:58N 53°33' E 009°59'0 0.0
2018-Apr-21 13:28N 53°33' E 009°59'0 0.0
2018-Apr-21 12:58N 53°33' E 009°59'0 0.0
2018-Apr-21 12:28N 53°33' E 009°59'0 0.0
2018-Apr-21 11:58N 53°33' E 009°59'0 0.0
2018-Apr-21 11:28N 53°33' E 009°59'0 0.0
2018-Apr-21 10:58N 53°33' E 009°59'0 0.0
2018-Apr-21 10:28N 53°33' E 009°59'0 0.0
2018-Apr-21 09:58N 53°33' E 009°59'0 0.0
2018-Apr-21 09:28N 53°33' E 009°59'0 0.0
2018-Apr-21 08:58N 53°33' E 009°59'0 0.0
2018-Apr-21 08:28N 53°33' E 009°59'0 0.0
2018-Apr-21 07:58N 53°33' E 009°59'0 0.0
2018-Apr-21 07:28N 53°33' E 009°59'0 0.0
2018-Apr-21 06:58N 53°33' E 009°59'0 0.0
2018-Apr-21 06:28N 53°33' E 009°59'0 0.0
2018-Apr-21 05:58N 53°33' E 009°59'0 0.0
2018-Apr-21 05:28N 53°33' E 009°59'0 0.0
2018-Apr-21 04:58N 53°33' E 009°59'0 0.0
2018-Apr-21 04:28N 53°33' E 009°59'0 0.0
2018-Apr-21 03:58N 53°33' E 009°59'0 0.0
2018-Apr-21 03:28N 53°33' E 009°59'0 0.0
2018-Apr-21 02:58N 53°33' E 009°59'0 0.0
2018-Apr-21 02:28N 53°33' E 009°59'0 0.0
2018-Apr-21 01:58N 53°33' E 009°59'0 0.0
2018-Apr-21 01:28N 53°33' E 009°59'0 0.0
2018-Apr-21 00:58N 53°33' E 009°59'0 0.0
2018-Apr-21 00:25N 53°33' E 009°59'0 0.0
2018-Apr-20 23:58N 53°33' E 009°59'0 0.0
2018-Apr-20 23:28N 53°33' E 009°59'0 0.0
2018-Apr-20 22:58N 53°33' E 009°59'0 0.0
2018-Apr-20 22:28N 53°33' E 009°59'0 0.0
2018-Apr-20 21:58N 53°33' E 009°59'0 0.0
2018-Apr-20 21:28N 53°33' E 009°59'0 0.0
2018-Apr-20 20:58N 53°33' E 009°59'0 0.0
2018-Apr-20 20:28N 53°33' E 009°59'0 0.0
2018-Apr-20 19:58N 53°33' E 009°59'0 0.0
2018-Apr-20 19:28N 53°33' E 009°59'0 0.0
2018-Apr-20 18:58N 53°33' E 009°59'0 0.0
2018-Apr-20 18:28N 53°33' E 009°59'0 0.0
2018-Apr-20 17:58N 53°33' E 009°59'0 0.0
2018-Apr-20 17:28N 53°33' E 009°59'0 0.0
2018-Apr-20 16:58N 53°33' E 009°59'0 0.0
2018-Apr-20 16:28N 53°33' E 009°59'0 0.0
2018-Apr-20 15:58N 53°33' E 009°59'0 0.0
2018-Apr-20 15:28N 53°33' E 009°59'0 0.0
2018-Apr-20 14:58N 53°33' E 009°59'0 0.0
2018-Apr-20 14:28N 53°33' E 009°59'0 0.0
2018-Apr-20 13:58N 53°33' E 009°59'0 0.0
2018-Apr-20 13:28N 53°33' E 009°59'0 0.0
2018-Apr-20 12:58N 53°33' E 009°59'0 0.0
2018-Apr-20 12:28N 53°33' E 009°59'0 0.0
2018-Apr-20 11:58N 53°33' E 009°59'0 0.0
2018-Apr-20 11:28N 53°33' E 009°59'0 0.0
2018-Apr-20 10:58N 53°33' E 009°59'0 0.0
2018-Apr-20 10:28N 53°33' E 009°59'0 0.0
2018-Apr-20 09:58N 53°33' E 009°59'0 0.0
2018-Apr-20 09:28N 53°33' E 009°59'0 0.0
2018-Apr-20 08:58N 53°33' E 009°59'0 0.0
2018-Apr-20 08:28N 53°33' E 009°59'0 0.0
2018-Apr-20 07:58N 53°33' E 009°59'0 0.0
2018-Apr-20 07:28N 53°33' E 009°59'0 0.0
2018-Apr-20 06:58N 53°33' E 009°59'0 0.0
2018-Apr-20 06:28N 53°33' E 009°59'0 0.0
2018-Apr-20 05:58N 53°33' E 009°59'0 0.0
2018-Apr-20 05:28N 53°33' E 009°59'0 0.0
2018-Apr-20 04:58N 53°33' E 009°59'0 0.0
2018-Apr-20 04:28N 53°33' E 009°59'0 0.0
2018-Apr-20 03:58N 53°33' E 009°59'0 0.0
2018-Apr-20 03:28N 53°33' E 009°59'0 0.0
2018-Apr-20 02:58N 53°33' E 009°59'0 0.0
2018-Apr-20 02:28N 53°33' E 009°59'0 0.0
2018-Apr-20 01:58N 53°33' E 009°59'0 0.0
2018-Apr-20 01:28N 53°33' E 009°59'0 0.0
2018-Apr-20 00:58N 53°33' E 009°59'0 0.0
2018-Apr-20 00:28N 53°33' E 009°59'0 0.0
2018-Apr-19 23:58N 53°33' E 009°59'0 0.0
2018-Apr-19 23:28N 53°33' E 009°59'0 0.0
2018-Apr-19 22:55N 53°33' E 009°59'0 0.0
2018-Apr-19 22:28N 53°33' E 009°59'0 0.0
2018-Apr-19 21:58N 53°33' E 009°59'0 0.0
2018-Apr-19 21:28N 53°33' E 009°59'0 0.0
2018-Apr-19 20:58N 53°33' E 009°59'0 0.0
2018-Apr-19 20:28N 53°33' E 009°59'0 0.0
2018-Apr-19 19:58N 53°33' E 009°59'0 0.0
2018-Apr-19 19:28N 53°33' E 009°59'0 0.0
2018-Apr-19 18:58N 53°33' E 009°59'0 0.0
2018-Apr-19 18:28N 53°33' E 009°59'0 0.0
2018-Apr-19 17:58N 53°33' E 009°59'0 0.0
2018-Apr-19 17:28N 53°33' E 009°59'0 0.0
2018-Apr-19 16:58N 53°33' E 009°59'0 0.0
2018-Apr-19 16:28N 53°33' E 009°59'0 0.0
2018-Apr-19 15:58N 53°33' E 009°59'0 0.0
2018-Apr-19 15:28N 53°33' E 009°59'0 0.0
2018-Apr-19 14:58N 53°33' E 009°59'0 0.0
2018-Apr-19 14:28N 53°33' E 009°59'0 0.0
2018-Apr-19 13:58N 53°33' E 009°59'0 0.0
2018-Apr-19 13:28N 53°33' E 009°59'0 0.0
2018-Apr-19 12:58N 53°33' E 009°59'0 0.0
2018-Apr-19 12:28N 53°33' E 009°59'0 0.0
2018-Apr-19 11:58N 53°33' E 009°59'0 0.0
2018-Apr-19 11:28N 53°33' E 009°59'0 0.0
2018-Apr-19 10:58N 53°33' E 009°59'0 0.0
2018-Apr-19 10:28N 53°33' E 009°59'0 0.0
2018-Apr-19 09:58N 53°33' E 009°59'0 0.0
2018-Apr-19 09:28N 53°33' E 009°59'0 0.0
2018-Apr-19 08:58N 53°33' E 009°59'0 0.0
2018-Apr-19 08:28N 53°33' E 009°59'0 0.0
2018-Apr-19 07:58N 53°33' E 009°59'0 0.0
2018-Apr-19 07:28N 53°33' E 009°59'0 0.0
2018-Apr-19 06:58N 53°33' E 009°59'0 0.0
2018-Apr-19 06:28N 53°33' E 009°59'0 0.0
2018-Apr-19 05:58N 53°33' E 009°59'0 0.0
2018-Apr-19 05:28N 53°33' E 009°59'0 0.0
2018-Apr-19 04:58N 53°33' E 009°59'0 0.0
2018-Apr-19 04:28N 53°33' E 009°59'0 0.0
2018-Apr-19 03:58N 53°33' E 009°59'0 0.0
2018-Apr-19 03:28N 53°33' E 009°59'0 0.0
2018-Apr-19 02:58N 53°33' E 009°59'0 0.0
2018-Apr-19 02:28N 53°33' E 009°59'0 0.0
2018-Apr-19 01:58N 53°33' E 009°59'0 0.0
2018-Apr-19 01:28N 53°33' E 009°59'0 0.0
2018-Apr-19 00:58N 53°33' E 009°59'0 0.0
2018-Apr-19 00:28N 53°33' E 009°59'0 0.0
2018-Apr-18 23:58N 53°33' E 009°59'0 0.0
2018-Apr-18 23:28N 53°33' E 009°59'0 0.0
2018-Apr-18 22:58N 53°33' E 009°59'0 0.0
2018-Apr-18 22:28N 53°33' E 009°59'0 0.0
2018-Apr-18 21:58N 53°33' E 009°59'0 0.0
2018-Apr-18 21:28N 53°33' E 009°59'0 0.0
2018-Apr-18 20:58N 53°33' E 009°59'0 0.0
2018-Apr-18 20:28N 53°33' E 009°59'0 0.0
2018-Apr-18 19:58N 53°33' E 009°59'0 0.0
2018-Apr-18 19:28N 53°33' E 009°59'0 0.0
2018-Apr-18 18:58N 53°33' E 009°59'0 0.0
2018-Apr-18 18:28N 53°33' E 009°59'0 0.0
2018-Apr-18 17:58N 53°33' E 009°59'0 0.0
2018-Apr-18 17:28N 53°33' E 009°59'0 0.0
2018-Apr-18 16:58N 53°33' E 009°59'0 0.0
2018-Apr-18 16:28N 53°33' E 009°59'0 0.0
2018-Apr-18 15:58N 53°33' E 009°59'0 0.0
2018-Apr-18 15:28N 53°33' E 009°59'0 0.0
2018-Apr-18 14:58N 53°33' E 009°59'0 0.0
2018-Apr-18 14:28N 53°33' E 009°59'0 0.0
2018-Apr-18 13:58N 53°33' E 009°59'0 0.0
2018-Apr-18 13:28N 53°33' E 009°59'0 0.0
2018-Apr-18 12:58N 53°33' E 009°59'0 0.0
2018-Apr-18 12:28N 53°33' E 009°59'0 0.0
2018-Apr-18 11:58N 53°33' E 009°59'0 0.0
2018-Apr-18 11:28N 53°33' E 009°59'0 0.0
2018-Apr-18 10:58N 53°33' E 009°59'0 0.0
2018-Apr-18 10:28N 53°33' E 009°59'0 0.0
2018-Apr-18 09:58N 53°33' E 009°59'0 0.0
2018-Apr-18 09:28N 53°33' E 009°59'0 0.0
2018-Apr-18 08:58N 53°33' E 009°59'0 0.0
2018-Apr-18 08:28N 53°33' E 009°59'0 0.0
2018-Apr-18 07:58N 53°33' E 009°59'0 0.0
2018-Apr-18 07:28N 53°33' E 009°59'0 0.0
2018-Apr-18 06:58N 53°33' E 009°59'0 0.0
2018-Apr-18 06:28N 53°33' E 009°59'0 0.0
2018-Apr-18 05:58N 53°33' E 009°59'0 0.0
2018-Apr-18 05:28N 53°33' E 009°59'0 0.0
2018-Apr-18 04:58N 53°33' E 009°59'0 0.0
2018-Apr-18 04:28N 53°33' E 009°59'0 0.0
2018-Apr-18 03:58N 53°33' E 009°59'0 0.0
2018-Apr-18 03:28N 53°33' E 009°59'0 0.0
2018-Apr-18 02:58N 53°33' E 009°59'0 0.0
2018-Apr-18 02:28N 53°33' E 009°59'0 0.0
2018-Apr-18 01:58N 53°33' E 009°59'0 0.0
2018-Apr-18 01:28N 53°33' E 009°59'0 0.0
2018-Apr-18 00:58N 53°33' E 009°59'0 0.0
2018-Apr-18 00:28N 53°33' E 009°59'0 0.0
2018-Apr-17 23:58N 53°33' E 009°59'0 0.0
2018-Apr-17 23:28N 53°33' E 009°59'0 0.0
2018-Apr-17 22:58N 53°33' E 009°59'0 0.0
2018-Apr-17 22:28N 53°33' E 009°59'0 0.0
2018-Apr-17 21:58N 53°33' E 009°59'0 0.0
2018-Apr-17 21:28N 53°33' E 009°59'0 0.0
2018-Apr-17 20:58N 53°33' E 009°59'0 0.0
2018-Apr-17 20:28N 53°33' E 009°59'0 0.0
2018-Apr-17 19:58N 53°33' E 009°59'0 0.0
2018-Apr-17 19:28N 53°33' E 009°59'0 0.0
2018-Apr-17 18:58N 53°33' E 009°59'0 0.0
2018-Apr-17 18:28N 53°33' E 009°59'0 0.0
2018-Apr-17 17:58N 53°33' E 009°59'0 0.0
2018-Apr-17 17:28N 53°33' E 009°59'0 0.0
2018-Apr-17 16:58N 53°33' E 009°59'0 0.0
2018-Apr-17 16:28N 53°33' E 009°59'0 0.0
2018-Apr-17 15:58N 53°33' E 009°59'0 0.0
2018-Apr-17 15:28N 53°33' E 009°59'0 0.0
2018-Apr-17 14:58N 53°33' E 009°59'0 0.0
2018-Apr-17 14:28N 53°33' E 009°59'0 0.0
2018-Apr-17 13:58N 53°33' E 009°59'0 0.0
2018-Apr-17 13:28N 53°33' E 009°59'0 0.0
2018-Apr-17 12:58N 53°33' E 009°59'0 0.0
2018-Apr-17 12:28N 53°33' E 009°59'0 0.0
2018-Apr-17 11:58N 53°33' E 009°59'0 0.0
2018-Apr-17 11:28N 53°33' E 009°59'0 0.0
2018-Apr-17 10:58N 53°33' E 009°59'0 0.0
2018-Apr-17 10:28N 53°33' E 009°59'0 0.0
2018-Apr-17 09:58N 53°33' E 009°59'0 0.0
2018-Apr-17 09:28N 53°33' E 009°59'0 0.0
2018-Apr-17 08:58N 53°33' E 009°59'  
Track history (hours):
 
Tides and Currents Weather Stations Pressure Air Temp Water Temp Dewpoint Dewpoint Depression Visibility Wind Speed Wind Dir Waves Ship Positions

Mare Frisium (Netherlands)

Ship's website: http://www.tallship-company.com/mare-frisium-2/

Last reported at 2018-Apr-27 08:30 UTC. Time now 2018-Apr-27 08:46 UTC.
Position N 53°33' E 009°59'.

Length 49 m; draft 2.7 m.

Type: Sailing vessel. MMSI: 244596000.

Date/timePositionNaut miles runAvg speedWind from/ knotsBaromVisibWave heightAir tempDewpointWater temp
2018-Apr-27 08:30N 53°33' E 009°59'0 0.0
2018-Apr-27 08:00N 53°33' E 009°59'0 0.0
2018-Apr-27 07:30N 53°33' E 009°59'0 0.0
2018-Apr-27 07:00N 53°33' E 009°59'0 0.0
2018-Apr-27 06:30N 53°33' E 009°59'0 0.0
2018-Apr-27 06:00N 53°33' E 009°59'0 0.0
2018-Apr-27 05:30N 53°33' E 009°59'0 0.0
2018-Apr-27 05:00N 53°33' E 009°59'0 0.0
2018-Apr-27 04:30N 53°33' E 009°59'0 0.0
2018-Apr-27 04:00N 53°33' E 009°59'0 0.0
2018-Apr-27 03:30N 53°33' E 009°59'0 0.0
2018-Apr-27 03:00N 53°33' E 009°59'0 0.0
2018-Apr-27 02:30N 53°33' E 009°59'0 0.0
2018-Apr-27 02:00N 53°33' E 009°59'0 0.0
2018-Apr-27 01:30N 53°33' E 009°59'0 0.0
2018-Apr-27 01:00N 53°33' E 009°59'0 0.0
2018-Apr-27 00:30N 53°33' E 009°59'0 0.0
2018-Apr-27 00:00N 53°33' E 009°59'0 0.0
2018-Apr-26 23:30N 53°33' E 009°59'0 0.0
2018-Apr-26 23:00N 53°33' E 009°59'0 0.0
2018-Apr-26 22:30N 53°33' E 009°59'0 0.0
2018-Apr-26 22:00N 53°33' E 009°59'0 0.0
2018-Apr-26 21:30N 53°33' E 009°59'0 0.0
2018-Apr-26 21:00N 53°33' E 009°59'0 0.0
2018-Apr-26 20:30N 53°33' E 009°59'0 0.0
2018-Apr-26 20:00N 53°33' E 009°59'0 0.0
2018-Apr-26 19:30N 53°33' E 009°59'0 0.0
2018-Apr-26 19:00N 53°33' E 009°59'0 0.0
2018-Apr-26 18:30N 53°33' E 009°59'1 2.9
2018-Apr-26 18:01N 53°32' E 009°56'2 4.2
2018-Apr-26 17:30N 53°32' E 009°53'1 2.9
2018-Apr-26 17:00N 53°33' E 009°51'2 3.5
2018-Apr-26 16:30N 53°33' E 009°48'2 4.5
2018-Apr-26 16:00N 53°34' E 009°44'2 3.5
2018-Apr-26 15:30N 53°34' E 009°41'3 5.0
2018-Apr-26 15:00N 53°34' E 009°45'4 8.3
2018-Apr-26 14:30N 53°33' E 009°52'3 6.4
2018-Apr-26 14:00N 53°33' E 009°57'1 1.7
2018-Apr-26 13:29N 53°33' E 009°59'0 0.0
2018-Apr-26 12:59N 53°33' E 009°59'0 0.0
2018-Apr-26 12:29N 53°33' E 009°59'0 0.1
2018-Apr-26 11:59N 53°33' E 009°59'0 0.0
2018-Apr-26 11:29N 53°33' E 009°59'0 0.0
2018-Apr-26 10:59N 53°33' E 009°59'0 0.0
2018-Apr-26 10:29N 53°33' E 009°59'0 0.0
2018-Apr-26 09:59N 53°33' E 009°59'0 0.0
2018-Apr-26 09:30N 53°33' E 009°59'0 0.0
2018-Apr-26 08:59N 53°33' E 009°59'0 0.0
2018-Apr-26 08:29N 53°33' E 009°59'0 0.0
2018-Apr-26 07:58N 53°33' E 009°59'0 0.0
2018-Apr-26 07:29N 53°33' E 009°59'0 0.0
2018-Apr-26 06:59N 53°33' E 009°59'0 0.0
2018-Apr-26 06:29N 53°33' E 009°59'0 0.0
2018-Apr-26 05:59N 53°33' E 009°59'0 0.0
2018-Apr-26 05:29N 53°33' E 009°59'0 0.0
2018-Apr-26 04:59N 53°33' E 009°59'0 0.0
2018-Apr-26 04:29N 53°33' E 009°59'0 0.0
2018-Apr-26 03:59N 53°33' E 009°59'0 0.0
2018-Apr-26 03:29N 53°33' E 009°59'0 0.0
2018-Apr-26 02:59N 53°33' E 009°59'0 0.0
2018-Apr-26 02:29N 53°33' E 009°59'0 0.0
2018-Apr-26 01:59N 53°33' E 009°59'0 0.0
2018-Apr-26 01:29N 53°33' E 009°59'0 0.1
2018-Apr-26 00:59N 53°33' E 009°59'0 0.0
2018-Apr-26 00:29N 53°33' E 009°59'0 0.0
2018-Apr-25 23:59N 53°33' E 009°59'0 0.0
2018-Apr-25 23:29N 53°33' E 009°59'0 0.0
2018-Apr-25 22:59N 53°33' E 009°59'0 0.0
2018-Apr-25 22:29N 53°33' E 009°59'0 0.0
2018-Apr-25 21:59N 53°33' E 009°59'0 0.0
2018-Apr-25 21:29N 53°33' E 009°59'0 0.0
2018-Apr-25 20:59N 53°33' E 009°59'1 1.9
2018-Apr-25 20:30N 53°33' E 009°57'3 5.4
2018-Apr-25 20:01N 53°32' E 009°53'3 5.7
2018-Apr-25 19:30N 53°33' E 009°48'3 6.2
2018-Apr-25 19:01N 53°34' E 009°43'3 5.0
2018-Apr-25 18:30N 53°34' E 009°39'1 1.7
2018-Apr-25 18:00N 53°34' E 009°40'4 7.4
2018-Apr-25 17:30N 53°34' E 009°47'4 7.9
2018-Apr-25 17:00N 53°33' E 009°53'3 6.9
2018-Apr-25 16:30N 53°32' E 009°59'0 0.2
2018-Apr-25 15:58N 53°33' E 009°59'0 0.0
2018-Apr-25 15:28N 53°33' E 009°59'0 0.0
2018-Apr-25 14:58N 53°33' E 009°59'0 0.0
2018-Apr-25 14:28N 53°33' E 009°59'0 0.1
2018-Apr-25 13:58N 53°33' E 009°59'0 0.0
2018-Apr-25 13:28N 53°33' E 009°59'0 0.0
2018-Apr-25 12:58N 53°33' E 009°59'0 0.0
2018-Apr-25 12:28N 53°33' E 009°59'0 0.0
2018-Apr-25 11:58N 53°33' E 009°59'0 0.0
2018-Apr-25 11:28N 53°33' E 009°59'0 0.0
2018-Apr-25 10:58N 53°33' E 009°59'0 0.0
2018-Apr-25 10:28N 53°33' E 009°59'0 0.0
2018-Apr-25 09:58N 53°33' E 009°59'0 0.0
2018-Apr-25 09:28N 53°33' E 009°59'0 0.0
2018-Apr-25 08:58N 53°33' E 009°59'0 0.0
2018-Apr-25 08:28N 53°33' E 009°59'0 0.0
2018-Apr-25 07:58N 53°33' E 009°59'0 0.0
2018-Apr-25 07:28N 53°33' E 009°59'0 0.0
2018-Apr-25 06:58N 53°33' E 009°59'0 0.0
2018-Apr-25 06:28N 53°33' E 009°59'0 0.0
2018-Apr-25 05:58N 53°33' E 009°59'0 0.0
2018-Apr-25 05:28N 53°33' E 009°59'0 0.0
2018-Apr-25 04:58N 53°33' E 009°59'0 0.0
2018-Apr-25 04:28N 53°33' E 009°59'0 0.0
2018-Apr-25 03:58N 53°33' E 009°59'0 0.0
2018-Apr-25 03:28N 53°33' E 009°59'0 0.0
2018-Apr-25 02:58N 53°33' E 009°59'0 0.0
2018-Apr-25 02:28N 53°33' E 009°59'0 0.0
2018-Apr-25 01:58N 53°33' E 009°59'0 0.0
2018-Apr-25 01:28N 53°33' E 009°59'0 0.0
2018-Apr-25 00:58N 53°33' E 009°59'0 0.0
2018-Apr-25 00:28N 53°33' E 009°59'0 0.0
2018-Apr-24 23:58N 53°33' E 009°59'0 0.0
2018-Apr-24 23:28N 53°33' E 009°59'0 0.0
2018-Apr-24 22:58N 53°33' E 009°59'0 0.0
2018-Apr-24 22:28N 53°33' E 009°59'0 0.0
2018-Apr-24 21:58N 53°33' E 009°59'0 0.0
2018-Apr-24 21:28N 53°33' E 009°59'0 0.0
2018-Apr-24 20:58N 53°33' E 009°59'0 0.0
2018-Apr-24 20:28N 53°33' E 009°59'0 0.0
2018-Apr-24 19:58N 53°33' E 009°59'0 0.0
2018-Apr-24 19:28N 53°33' E 009°59'0 0.0
2018-Apr-24 18:58N 53°33' E 009°59'0 0.0
2018-Apr-24 18:28N 53°33' E 009°59'0 0.0
2018-Apr-24 17:58N 53°33' E 009°59'0 0.0
2018-Apr-24 17:28N 53°33' E 009°59'0 0.0
2018-Apr-24 16:58N 53°33' E 009°59'0 0.0
2018-Apr-24 16:28N 53°33' E 009°59'0 0.0
2018-Apr-24 15:58N 53°33' E 009°59'0 0.0
2018-Apr-24 15:28N 53°33' E 009°59'0 0.0
2018-Apr-24 14:58N 53°33' E 009°59'0 0.0
2018-Apr-24 14:28N 53°33' E 009°59'0 0.0
2018-Apr-24 13:58N 53°33' E 009°59'0 0.0
2018-Apr-24 13:28N 53°33' E 009°59'0 0.0
2018-Apr-24 12:58N 53°33' E 009°59'0 0.0
2018-Apr-24 12:28N 53°33' E 009°59'0 0.0
2018-Apr-24 11:58N 53°33' E 009°59'0 0.0
2018-Apr-24 11:28N 53°33' E 009°59'0 0.0
2018-Apr-24 10:58N 53°33' E 009°59'0 0.0
2018-Apr-24 10:28N 53°33' E 009°59'0 0.0
2018-Apr-24 09:58N 53°33' E 009°59'0 0.0
2018-Apr-24 09:28N 53°33' E 009°59'0 0.0
2018-Apr-24 08:58N 53°33' E 009°59'0 0.0
2018-Apr-24 08:28N 53°33' E 009°59'0 0.0
2018-Apr-24 07:58N 53°33' E 009°59'0 0.0
2018-Apr-24 07:28N 53°33' E 009°59'0 0.0
2018-Apr-24 06:58N 53°33' E 009°59'0 0.0
2018-Apr-24 06:28N 53°33' E 009°59'0 0.0
2018-Apr-24 05:58N 53°33' E 009°59'0 0.0
2018-Apr-24 05:28N 53°33' E 009°59'0 0.0
2018-Apr-24 04:58N 53°33' E 009°59'0 0.0
2018-Apr-24 04:28N 53°33' E 009°59'0 0.0
2018-Apr-24 03:58N 53°33' E 009°59'0 0.0
2018-Apr-24 03:28N 53°33' E 009°59'0 0.0
2018-Apr-24 02:58N 53°33' E 009°59'0 0.0
2018-Apr-24 02:28N 53°33' E 009°59'0 0.0
2018-Apr-24 01:58N 53°33' E 009°59'0 0.0
2018-Apr-24 01:28N 53°33' E 009°59'0 0.0
2018-Apr-24 00:58N 53°33' E 009°59'0 0.0
2018-Apr-24 00:28N 53°33' E 009°59'0 0.0
2018-Apr-23 23:58N 53°33' E 009°59'0 0.0
2018-Apr-23 23:28N 53°33' E 009°59'0 0.0
2018-Apr-23 22:58N 53°33' E 009°59'0 0.0
2018-Apr-23 22:28N 53°33' E 009°59'0 0.0
2018-Apr-23 21:58N 53°33' E 009°59'0 0.0
2018-Apr-23 21:28N 53°33' E 009°59'0 0.0
2018-Apr-23 20:58N 53°33' E 009°59'0 0.0
2018-Apr-23 20:28N 53°33' E 009°59'0 0.0
2018-Apr-23 19:58N 53°33' E 009°59'0 0.0
2018-Apr-23 19:28N 53°33' E 009°59'0 0.0
2018-Apr-23 18:58N 53°33' E 009°59'0 0.0
2018-Apr-23 18:28N 53°33' E 009°59'0 0.0
2018-Apr-23 17:58N 53°33' E 009°59'0 0.0
2018-Apr-23 17:28N 53°33' E 009°59'0 0.0
2018-Apr-23 16:58N 53°33' E 009°59'0 0.0
2018-Apr-23 16:28N 53°33' E 009°59'0 0.0
2018-Apr-23 15:58N 53°33' E 009°59'0 0.0
2018-Apr-23 15:28N 53°33' E 009°59'0 0.0
2018-Apr-23 14:58N 53°33' E 009°59'0 0.0
2018-Apr-23 14:28N 53°33' E 009°59'0 0.0
2018-Apr-23 13:58N 53°33' E 009°59'0 0.0
2018-Apr-23 13:28N 53°33' E 009°59'0 0.0
2018-Apr-23 12:58N 53°33' E 009°59'0 0.0
2018-Apr-23 12:28N 53°33' E 009°59'0 0.0
2018-Apr-23 11:58N 53°33' E 009°59'0 0.0
2018-Apr-23 11:28N 53°33' E 009°59'0 0.0
2018-Apr-23 10:58N 53°33' E 009°59'0 0.0
2018-Apr-23 10:28N 53°33' E 009°59'0 0.0
2018-Apr-23 09:58N 53°33' E 009°59'0 0.0
2018-Apr-23 09:28N 53°33' E 009°59'0 0.0
2018-Apr-23 08:58N 53°33' E 009°59'0 0.0
2018-Apr-23 08:28N 53°33' E 009°59'0 0.0
2018-Apr-23 07:58N 53°33' E 009°59'0 0.0
2018-Apr-23 07:28N 53°33' E 009°59'0 0.0
2018-Apr-23 06:58N 53°33' E 009°59'0 0.0
2018-Apr-23 06:28N 53°33' E 009°59'0 0.0
2018-Apr-23 05:58N 53°33' E 009°59'0 0.0
2018-Apr-23 05:28N 53°33' E 009°59'0 0.0
2018-Apr-23 04:58N 53°33' E 009°59'0 0.0
2018-Apr-23 04:28N 53°33' E 009°59'0 0.0
2018-Apr-23 03:58N 53°33' E 009°59'0 0.0
2018-Apr-23 03:28N 53°33' E 009°59'0 0.0
2018-Apr-23 02:58N 53°33' E 009°59'0 0.0
2018-Apr-23 02:28N 53°33' E 009°59'0 0.0
2018-Apr-23 01:58N 53°33' E 009°59'0 0.0
2018-Apr-23 01:28N 53°33' E 009°59'0 0.0
2018-Apr-23 00:58N 53°33' E 009°59'0 0.0
2018-Apr-23 00:28N 53°33' E 009°59'0 0.0
2018-Apr-22 23:58N 53°33' E 009°59'0 0.0
2018-Apr-22 23:28N 53°33' E 009°59'0 0.0
2018-Apr-22 22:58N 53°33' E 009°59'0 0.0
2018-Apr-22 22:28N 53°33' E 009°59'0 0.0
2018-Apr-22 22:00N 53°33' E 009°59'0 0.0
2018-Apr-22 21:30N 53°33' E 009°59'1 2.8
2018-Apr-22 21:00N 53°33' E 009°56'2 3.3
2018-Apr-22 20:31N 53°32' E 009°54'2 4.2
2018-Apr-22 20:00N 53°33' E 009°50'1 2.8
2018-Apr-22 19:30N 53°33' E 009°48'1 2.6
2018-Apr-22 19:00N 53°33' E 009°50'1 2.1
2018-Apr-22 18:30N 53°33' E 009°52'1 2.0
2018-Apr-22 18:00N 53°33' E 009°53'1 1.8
2018-Apr-22 17:28N 53°33' E 009°55'1 2.7
2018-Apr-22 17:00N 53°33' E 009°57'1 2.0
2018-Apr-22 16:30N 53°32' E 009°59'0 0.2
2018-Apr-22 15:58N 53°33' E 009°59'0 0.0
2018-Apr-22 15:28N 53°33' E 009°59'0 0.0
2018-Apr-22 14:58N 53°33' E 009°59'0 0.0
2018-Apr-22 14:28N 53°33' E 009°59'0 0.0
2018-Apr-22 13:58N 53°33' E 009°59'0 0.0
2018-Apr-22 13:28N 53°33' E 009°59'0 0.0
2018-Apr-22 12:58N 53°33' E 009°59'1 1.9
2018-Apr-22 12:30N 53°33' E 009°57'3 5.2
2018-Apr-22 12:00N 53°32' E 009°53'3 5.0
2018-Apr-22 11:30N 53°33' E 009°49'2 4.7
2018-Apr-22 11:00N 53°34' E 009°45'1 2.1
2018-Apr-22 10:30N 53°34' E 009°47'4 7.7
2018-Apr-22 10:00N 53°33' E 009°53'3 5.9
2018-Apr-22 09:30N 53°33' E 009°58'0 0.8
2018-Apr-22 08:58N 53°33' E 009°59'0 0.0
2018-Apr-22 08:28N 53°33' E 009°59'0 0.0
2018-Apr-22 07:58N 53°33' E 009°59'0 0.0
2018-Apr-22 07:28N 53°33' E 009°59'0 0.0
2018-Apr-22 06:58N 53°33' E 009°59'0 0.0
2018-Apr-22 06:28N 53°33' E 009°59'0 0.1
2018-Apr-22 05:58N 53°33' E 009°59'0 0.0
2018-Apr-22 05:28N 53°33' E 009°59'0 0.0
2018-Apr-22 04:58N 53°33' E 009°59'0 0.0
2018-Apr-22 04:28N 53°33' E 009°59'0 0.0
2018-Apr-22 03:58N 53°33' E 009°59'0 0.0
2018-Apr-22 03:28N 53°33' E 009°59'0 0.0
2018-Apr-22 02:58N 53°33' E 009°59'0 0.0
2018-Apr-22 02:28N 53°33' E 009°59'0 0.0
2018-Apr-22 01:55N 53°33' E 009°59'0 0.0
2018-Apr-22 01:28N 53°33' E 009°59'0 0.0
2018-Apr-22 00:58N 53°33' E 009°59'0 0.0
2018-Apr-22 00:28N 53°33' E 009°59'0 0.0
2018-Apr-21 23:58N 53°33' E 009°59'0 0.0
2018-Apr-21 23:28N 53°33' E 009°59'0 0.0
2018-Apr-21 22:58N 53°33' E 009°59'0 0.0
2018-Apr-21 22:28N 53°33' E 009°59'0 0.0
2018-Apr-21 21:58N 53°33' E 009°59'0 0.0
2018-Apr-21 21:28N 53°33' E 009°59'0 0.0
2018-Apr-21 20:58N 53°33' E 009°59'0 0.0
2018-Apr-21 20:28N 53°33' E 009°59'0 0.0
2018-Apr-21 19:58N 53°33' E 009°59'0 0.0
2018-Apr-21 19:28N 53°33' E 009°59'0 0.0
2018-Apr-21 18:58N 53°33' E 009°59'0 0.0
2018-Apr-21 18:28N 53°33' E 009°59'0 0.0
2018-Apr-21 17:58N 53°33' E 009°59'0 0.0
2018-Apr-21 17:28N 53°33' E 009°59'0 0.0
2018-Apr-21 16:58N 53°33' E 009°59'0 0.0
2018-Apr-21 16:28N 53°33' E 009°59'0 0.0
2018-Apr-21 15:58N 53°33' E 009°59'0 0.0
2018-Apr-21 15:28N 53°33' E 009°59'0 0.0
2018-Apr-21 14:58N 53°33' E 009°59'0 0.0
2018-Apr-21 14:28N 53°33' E 009°59'0 0.0
2018-Apr-21 13:58N 53°33' E 009°59'0 0.0
2018-Apr-21 13:28N 53°33' E 009°59'0 0.0
2018-Apr-21 12:58N 53°33' E 009°59'0 0.0
2018-Apr-21 12:28N 53°33' E 009°59'0 0.0
2018-Apr-21 11:58N 53°33' E 009°59'0 0.0
2018-Apr-21 11:28N 53°33' E 009°59'0 0.0
2018-Apr-21 10:58N 53°33' E 009°59'0 0.0
2018-Apr-21 10:28N 53°33' E 009°59'0 0.0
2018-Apr-21 09:58N 53°33' E 009°59'0 0.0
2018-Apr-21 09:28N 53°33' E 009°59'0 0.0
2018-Apr-21 08:58N 53°33' E 009°59'0 0.0
2018-Apr-21 08:28N 53°33' E 009°59'0 0.0
2018-Apr-21 07:58N 53°33' E 009°59'0 0.0
2018-Apr-21 07:28N 53°33' E 009°59'0 0.0
2018-Apr-21 06:58N 53°33' E 009°59'0 0.0
2018-Apr-21 06:28N 53°33' E 009°59'0 0.0
2018-Apr-21 05:58N 53°33' E 009°59'0 0.0
2018-Apr-21 05:28N 53°33' E 009°59'0 0.0
2018-Apr-21 04:58N 53°33' E 009°59'0 0.0
2018-Apr-21 04:28N 53°33' E 009°59'0 0.0
2018-Apr-21 03:58N 53°33' E 009°59'0 0.0
2018-Apr-21 03:28N 53°33' E 009°59'0 0.0
2018-Apr-21 02:58N 53°33' E 009°59'0 0.0
2018-Apr-21 02:28N 53°33' E 009°59'0 0.0
2018-Apr-21 01:58N 53°33' E 009°59'0 0.0
2018-Apr-21 01:28N 53°33' E 009°59'0 0.0
2018-Apr-21 00:58N 53°33' E 009°59'0 0.0
2018-Apr-21 00:25N 53°33' E 009°59'0 0.0
2018-Apr-20 23:58N 53°33' E 009°59'0 0.0
2018-Apr-20 23:28N 53°33' E 009°59'0 0.0
2018-Apr-20 22:58N 53°33' E 009°59'0 0.0
2018-Apr-20 22:28N 53°33' E 009°59'0 0.0
2018-Apr-20 21:58N 53°33' E 009°59'0 0.0
2018-Apr-20 21:28N 53°33' E 009°59'0 0.0
2018-Apr-20 20:58N 53°33' E 009°59'0 0.0
2018-Apr-20 20:28N 53°33' E 009°59'0 0.0
2018-Apr-20 19:58N 53°33' E 009°59'0 0.0
2018-Apr-20 19:28N 53°33' E 009°59'0 0.0
2018-Apr-20 18:58N 53°33' E 009°59'0 0.0
2018-Apr-20 18:28N 53°33' E 009°59'0 0.0
2018-Apr-20 17:58N 53°33' E 009°59'0 0.0
2018-Apr-20 17:28N 53°33' E 009°59'0 0.0
2018-Apr-20 16:58N 53°33' E 009°59'0 0.0
2018-Apr-20 16:28N 53°33' E 009°59'0 0.0
2018-Apr-20 15:58N 53°33' E 009°59'0 0.0
2018-Apr-20 15:28N 53°33' E 009°59'0 0.0
2018-Apr-20 14:58N 53°33' E 009°59'0 0.0
2018-Apr-20 14:28N 53°33' E 009°59'0 0.0
2018-Apr-20 13:58N 53°33' E 009°59'0 0.0
2018-Apr-20 13:28N 53°33' E 009°59'0 0.0
2018-Apr-20 12:58N 53°33' E 009°59'0 0.0
2018-Apr-20 12:28N 53°33' E 009°59'0 0.0
2018-Apr-20 11:58N 53°33' E 009°59'0 0.0
2018-Apr-20 11:28N 53°33' E 009°59'0 0.0
2018-Apr-20 10:58N 53°33' E 009°59'0 0.0
2018-Apr-20 10:28N 53°33' E 009°59'0 0.0
2018-Apr-20 09:58N 53°33' E 009°59'0 0.0
2018-Apr-20 09:28N 53°33' E 009°59'0 0.0
2018-Apr-20 08:58N 53°33' E 009°59'0 0.0
2018-Apr-20 08:28N 53°33' E 009°59'0 0.0
2018-Apr-20 07:58N 53°33' E 009°59'0 0.0
2018-Apr-20 07:28N 53°33' E 009°59'0 0.0
2018-Apr-20 06:58N 53°33' E 009°59'0 0.0
2018-Apr-20 06:28N 53°33' E 009°59'0 0.0
2018-Apr-20 05:58N 53°33' E 009°59'0 0.0
2018-Apr-20 05:28N 53°33' E 009°59'0 0.0
2018-Apr-20 04:58N 53°33' E 009°59'0 0.0
2018-Apr-20 04:28N 53°33' E 009°59'0 0.0
2018-Apr-20 03:58N 53°33' E 009°59'0 0.0
2018-Apr-20 03:28N 53°33' E 009°59'0 0.0
2018-Apr-20 02:58N 53°33' E 009°59'0 0.0
2018-Apr-20 02:28N 53°33' E 009°59'0 0.0
2018-Apr-20 01:58N 53°33' E 009°59'0 0.0
2018-Apr-20 01:28N 53°33' E 009°59'0 0.0
2018-Apr-20 00:58N 53°33' E 009°59'0 0.0
2018-Apr-20 00:28N 53°33' E 009°59'0 0.0
2018-Apr-19 23:58N 53°33' E 009°59'0 0.0
2018-Apr-19 23:28N 53°33' E 009°59'0 0.0
2018-Apr-19 22:55N 53°33' E 009°59'0 0.0
2018-Apr-19 22:28N 53°33' E 009°59'0 0.0
2018-Apr-19 21:58N 53°33' E 009°59'0 0.0
2018-Apr-19 21:28N 53°33' E 009°59'0 0.0
2018-Apr-19 20:58N 53°33' E 009°59'0 0.0
2018-Apr-19 20:28N 53°33' E 009°59'0 0.0
2018-Apr-19 19:58N 53°33' E 009°59'0 0.0
2018-Apr-19 19:28N 53°33' E 009°59'0 0.0
2018-Apr-19 18:58N 53°33' E 009°59'0 0.0
2018-Apr-19 18:28N 53°33' E 009°59'0 0.0
2018-Apr-19 17:58N 53°33' E 009°59'0 0.0
2018-Apr-19 17:28N 53°33' E 009°59'0 0.0
2018-Apr-19 16:58N 53°33' E 009°59'0 0.0
2018-Apr-19 16:28N 53°33' E 009°59'0 0.0
2018-Apr-19 15:58N 53°33' E 009°59'0 0.0
2018-Apr-19 15:28N 53°33' E 009°59'0 0.0
2018-Apr-19 14:58N 53°33' E 009°59'0 0.0
2018-Apr-19 14:28N 53°33' E 009°59'0 0.0
2018-Apr-19 13:58N 53°33' E 009°59'0 0.0
2018-Apr-19 13:28N 53°33' E 009°59'0 0.0
2018-Apr-19 12:58N 53°33' E 009°59'0 0.0
2018-Apr-19 12:28N 53°33' E 009°59'0 0.0
2018-Apr-19 11:58N 53°33' E 009°59'0 0.0
2018-Apr-19 11:28N 53°33' E 009°59'0 0.0
2018-Apr-19 10:58N 53°33' E 009°59'0 0.0
2018-Apr-19 10:28N 53°33' E 009°59'0 0.0
2018-Apr-19 09:58N 53°33' E 009°59'0 0.0
2018-Apr-19 09:28N 53°33' E 009°59'0 0.0
2018-Apr-19 08:58N 53°33' E 009°59'0 0.0
2018-Apr-19 08:28N 53°33' E 009°59'0 0.0
2018-Apr-19 07:58N 53°33' E 009°59'0 0.0
2018-Apr-19 07:28N 53°33' E 009°59'0 0.0
2018-Apr-19 06:58N 53°33' E 009°59'0 0.0
2018-Apr-19 06:28N 53°33' E 009°59'0 0.0
2018-Apr-19 05:58N 53°33' E 009°59'0 0.0
2018-Apr-19 05:28N 53°33' E 009°59'0 0.0
2018-Apr-19 04:58N 53°33' E 009°59'0 0.0
2018-Apr-19 04:28N 53°33' E 009°59'0 0.0
2018-Apr-19 03:58N 53°33' E 009°59'0 0.0
2018-Apr-19 03:28N 53°33' E 009°59'0 0.0
2018-Apr-19 02:58N 53°33' E 009°59'0 0.0
2018-Apr-19 02:28N 53°33' E 009°59'0 0.0
2018-Apr-19 01:58N 53°33' E 009°59'0 0.0
2018-Apr-19 01:28N 53°33' E 009°59'0 0.0
2018-Apr-19 00:58N 53°33' E 009°59'0 0.0
2018-Apr-19 00:28N 53°33' E 009°59'0 0.0
2018-Apr-18 23:58N 53°33' E 009°59'0 0.0
2018-Apr-18 23:28N 53°33' E 009°59'0 0.0
2018-Apr-18 22:58N 53°33' E 009°59'0 0.0
2018-Apr-18 22:28N 53°33' E 009°59'0 0.0
2018-Apr-18 21:58N 53°33' E 009°59'0 0.0
2018-Apr-18 21:28N 53°33' E 009°59'0 0.0
2018-Apr-18 20:58N 53°33' E 009°59'0 0.0
2018-Apr-18 20:28N 53°33' E 009°59'0 0.0
2018-Apr-18 19:58N 53°33' E 009°59'0 0.0
2018-Apr-18 19:28N 53°33' E 009°59'0 0.0
2018-Apr-18 18:58N 53°33' E 009°59'0 0.0
2018-Apr-18 18:28N 53°33' E 009°59'0 0.0
2018-Apr-18 17:58N 53°33' E 009°59'0 0.0
2018-Apr-18 17:28N 53°33' E 009°59'0 0.0
2018-Apr-18 16:58N 53°33' E 009°59'0 0.0
2018-Apr-18 16:28N 53°33' E 009°59'0 0.0
2018-Apr-18 15:58N 53°33' E 009°59'0 0.0
2018-Apr-18 15:28N 53°33' E 009°59'0 0.0
2018-Apr-18 14:58N 53°33' E 009°59'0 0.0
2018-Apr-18 14:28N 53°33' E 009°59'0 0.0
2018-Apr-18 13:58N 53°33' E 009°59'0 0.0
2018-Apr-18 13:28N 53°33' E 009°59'0 0.0
2018-Apr-18 12:58N 53°33' E 009°59'0 0.0
2018-Apr-18 12:28N 53°33' E 009°59'0 0.0
2018-Apr-18 11:58N 53°33' E 009°59'0 0.0
2018-Apr-18 11:28N 53°33' E 009°59'0 0.0
2018-Apr-18 10:58N 53°33' E 009°59'0 0.0
2018-Apr-18 10:28N 53°33' E 009°59'0 0.0
2018-Apr-18 09:58N 53°33' E 009°59'0 0.0
2018-Apr-18 09:28N 53°33' E 009°59'0 0.0
2018-Apr-18 08:58N 53°33' E 009°59'0 0.0
2018-Apr-18 08:28N 53°33' E 009°59'0 0.0
2018-Apr-18 07:58N 53°33' E 009°59'0 0.0
2018-Apr-18 07:28N 53°33' E 009°59'0 0.0
2018-Apr-18 06:58N 53°33' E 009°59'0 0.0
2018-Apr-18 06:28N 53°33' E 009°59'0 0.0
2018-Apr-18 05:58N 53°33' E 009°59'0 0.0
2018-Apr-18 05:28N 53°33' E 009°59'0 0.0
2018-Apr-18 04:58N 53°33' E 009°59'0 0.0
2018-Apr-18 04:28N 53°33' E 009°59'0 0.0
2018-Apr-18 03:58N 53°33' E 009°59'0 0.0
2018-Apr-18 03:28N 53°33' E 009°59'0 0.0
2018-Apr-18 02:58N 53°33' E 009°59'0 0.0
2018-Apr-18 02:28N 53°33' E 009°59'0 0.0
2018-Apr-18 01:58N 53°33' E 009°59'0 0.0
2018-Apr-18 01:28N 53°33' E 009°59'0 0.0
2018-Apr-18 00:58N 53°33' E 009°59'0 0.0
2018-Apr-18 00:28N 53°33' E 009°59'0 0.0
2018-Apr-17 23:58N 53°33' E 009°59'0 0.0
2018-Apr-17 23:28N 53°33' E 009°59'0 0.0
2018-Apr-17 22:58N 53°33' E 009°59'0 0.0
2018-Apr-17 22:28N 53°33' E 009°59'0 0.0
2018-Apr-17 21:58N 53°33' E 009°59'0 0.0
2018-Apr-17 21:28N 53°33' E 009°59'0 0.0
2018-Apr-17 20:58N 53°33' E 009°59'0 0.0
2018-Apr-17 20:28N 53°33' E 009°59'0 0.0
2018-Apr-17 19:58N 53°33' E 009°59'0 0.0
2018-Apr-17 19:28N 53°33' E 009°59'0 0.0
2018-Apr-17 18:58N 53°33' E 009°59'0 0.0
2018-Apr-17 18:28N 53°33' E 009°59'0 0.0
2018-Apr-17 17:58N 53°33' E 009°59'0 0.0
2018-Apr-17 17:28N 53°33' E 009°59'0 0.0
2018-Apr-17 16:58N 53°33' E 009°59'0 0.0
2018-Apr-17 16:28N 53°33' E 009°59'0 0.0
2018-Apr-17 15:58N 53°33' E 009°59'0 0.0
2018-Apr-17 15:28N 53°33' E 009°59'0 0.0
2018-Apr-17 14:58N 53°33' E 009°59'0 0.0
2018-Apr-17 14:28N 53°33' E 009°59'0 0.0
2018-Apr-17 13:58N 53°33' E 009°59'0 0.0
2018-Apr-17 13:28N 53°33' E 009°59'0 0.0
2018-Apr-17 12:58N 53°33' E 009°59'0 0.0
2018-Apr-17 12:28N 53°33' E 009°59'0 0.0
2018-Apr-17 11:58N 53°33' E 009°59'0 0.0
2018-Apr-17 11:28N 53°33' E 009°59'0 0.0
2018-Apr-17 10:58N 53°33' E 009°59'0 0.0
2018-Apr-17 10:28N 53°33' E 009°59'0 0.0
2018-Apr-17 09:58N 53°33' E 009°59'0 0.0
2018-Apr-17 09:28N 53°33' E 009°59'0 0.0
2018-Apr-17 08:58N 53°33' E 009°59'  

Dump ship's entire track history